sensor_id;sensor_type;location;lat;lon;timestamp;temperature;humidity
57857;DHT22;43683;48.650;9.290;2023-05-16T00:02:24;9.10;91.80
57857;DHT22;43683;48.650;9.290;2023-05-16T00:04:50;9.10;91.90
57857;DHT22;43683;48.650;9.290;2023-05-16T00:07:16;9.00;92.00
57857;DHT22;43683;48.650;9.290;2023-05-16T00:09:41;9.00;92.00
57857;DHT22;43683;48.650;9.290;2023-05-16T00:12:07;8.90;92.00
57857;DHT22;43683;48.650;9.290;2023-05-16T00:14:33;8.90;92.00
57857;DHT22;43683;48.650;9.290;2023-05-16T00:16:59;9.00;91.90
57857;DHT22;43683;48.650;9.290;2023-05-16T00:19:25;9.00;91.90
57857;DHT22;43683;48.650;9.290;2023-05-16T00:21:52;8.90;91.90
57857;DHT22;43683;48.650;9.290;2023-05-16T00:24:17;8.90;92.00
57857;DHT22;43683;48.650;9.290;2023-05-16T00:26:43;8.80;92.00
57857;DHT22;43683;48.650;9.290;2023-05-16T00:29:08;8.80;92.00
57857;DHT22;43683;48.650;9.290;2023-05-16T00:31:34;8.80;92.00
57857;DHT22;43683;48.650;9.290;2023-05-16T00:33:59;8.80;92.00
57857;DHT22;43683;48.650;9.290;2023-05-16T00:36:25;8.80;92.00
57857;DHT22;43683;48.650;9.290;2023-05-16T00:38:50;8.80;92.00
57857;DHT22;43683;48.650;9.290;2023-05-16T00:41:16;8.90;92.00
57857;DHT22;43683;48.650;9.290;2023-05-16T00:43:42;8.90;91.90
57857;DHT22;43683;48.650;9.290;2023-05-16T00:46:08;9.00;91.80
57857;DHT22;43683;48.650;9.290;2023-05-16T00:48:33;9.10;91.60
57857;DHT22;43683;48.650;9.290;2023-05-16T00:50:59;9.20;91.50
57857;DHT22;43683;48.650;9.290;2023-05-16T00:53:25;9.30;91.50
57857;DHT22;43683;48.650;9.290;2023-05-16T00:55:51;9.40;91.40
57857;DHT22;43683;48.650;9.290;2023-05-16T00:58:17;9.50;91.40
57857;DHT22;43683;48.650;9.290;2023-05-16T01:00:43;9.50;91.50
57857;DHT22;43683;48.650;9.290;2023-05-16T01:03:10;9.50;91.50
57857;DHT22;43683;48.650;9.290;2023-05-16T01:05:36;9.50;91.60
57857;DHT22;43683;48.650;9.290;2023-05-16T01:08:01;9.50;91.70
57857;DHT22;43683;48.650;9.290;2023-05-16T01:10:35;9.50;91.80
57857;DHT22;43683;48.650;9.290;2023-05-16T01:13:26;9.50;91.90
57857;DHT22;43683;48.650;9.290;2023-05-16T01:16:01;9.50;92.00
57857;DHT22;43683;48.650;9.290;2023-05-16T01:18:41;9.50;91.90
57857;DHT22;43683;48.650;9.290;2023-05-16T01:21:16;9.40;92.00
57857;DHT22;43683;48.650;9.290;2023-05-16T01:24:03;9.40;92.10
57857;DHT22;43683;48.650;9.290;2023-05-16T01:26:34;9.30;92.20
57857;DHT22;43683;48.650;9.290;2023-05-16T01:29:01;9.30;92.20
57857;DHT22;43683;48.650;9.290;2023-05-16T01:31:26;9.30;92.20
57857;DHT22;43683;48.650;9.290;2023-05-16T01:33:53;9.30;92.30
57857;DHT22;43683;48.650;9.290;2023-05-16T01:36:40;9.20;92.30
57857;DHT22;43683;48.650;9.290;2023-05-16T01:42:03;9.20;92.40
57857;DHT22;43683;48.650;9.290;2023-05-16T01:44:40;9.20;92.40
57857;DHT22;43683;48.650;9.290;2023-05-16T01:47:11;9.30;92.30
57857;DHT22;43683;48.650;9.290;2023-05-16T01:49:49;9.30;92.20
57857;DHT22;43683;48.650;9.290;2023-05-16T01:52:27;9.40;92.30
57857;DHT22;43683;48.650;9.290;2023-05-16T01:54:57;9.40;92.20
57857;DHT22;43683;48.650;9.290;2023-05-16T01:57:25;9.50;92.10
57857;DHT22;43683;48.650;9.290;2023-05-16T01:59:51;9.60;92.00
57857;DHT22;43683;48.650;9.290;2023-05-16T02:02:18;9.70;92.00
57857;DHT22;43683;48.650;9.290;2023-05-16T02:04:43;9.70;92.00
57857;DHT22;43683;48.650;9.290;2023-05-16T02:07:09;9.70;92.00
57857;DHT22;43683;48.650;9.290;2023-05-16T02:09:34;9.80;91.90
57857;DHT22;43683;48.650;9.290;2023-05-16T02:12:00;9.80;91.90
57857;DHT22;43683;48.650;9.290;2023-05-16T02:14:26;9.90;91.90
57857;DHT22;43683;48.650;9.290;2023-05-16T02:16:52;10.00;91.90
57857;DHT22;43683;48.650;9.290;2023-05-16T02:19:17;10.00;91.80
57857;DHT22;43683;48.650;9.290;2023-05-16T02:21:43;10.00;91.80
57857;DHT22;43683;48.650;9.290;2023-05-16T02:24:08;10.10;91.90
57857;DHT22;43683;48.650;9.290;2023-05-16T02:26:34;10.00;91.80
57857;DHT22;43683;48.650;9.290;2023-05-16T02:28:59;10.10;91.90
57857;DHT22;43683;48.650;9.290;2023-05-16T02:31:29;10.10;91.90
57857;DHT22;43683;48.650;9.290;2023-05-16T02:33:56;10.10;92.00
57857;DHT22;43683;48.650;9.290;2023-05-16T02:36:22;10.10;91.90
57857;DHT22;43683;48.650;9.290;2023-05-16T02:38:48;10.10;91.90
57857;DHT22;43683;48.650;9.290;2023-05-16T02:41:13;10.10;91.90
57857;DHT22;43683;48.650;9.290;2023-05-16T02:43:39;10.20;92.00
57857;DHT22;43683;48.650;9.290;2023-05-16T02:46:18;10.20;92.30
57857;DHT22;43683;48.650;9.290;2023-05-16T02:48:44;10.20;91.90
57857;DHT22;43683;48.650;9.290;2023-05-16T02:51:09;10.20;91.80
57857;DHT22;43683;48.650;9.290;2023-05-16T02:53:35;10.30;91.80
57857;DHT22;43683;48.650;9.290;2023-05-16T02:56:00;10.30;92.10
57857;DHT22;43683;48.650;9.290;2023-05-16T02:58:26;10.30;91.80
57857;DHT22;43683;48.650;9.290;2023-05-16T03:00:51;10.40;91.80
57857;DHT22;43683;48.650;9.290;2023-05-16T03:03:17;10.40;91.70
57857;DHT22;43683;48.650;9.290;2023-05-16T03:05:43;10.40;91.70
57857;DHT22;43683;48.650;9.290;2023-05-16T03:08:08;10.40;91.70
57857;DHT22;43683;48.650;9.290;2023-05-16T03:10:34;10.40;91.70
57857;DHT22;43683;48.650;9.290;2023-05-16T03:12:59;10.50;91.70
57857;DHT22;43683;48.650;9.290;2023-05-16T03:15:25;10.50;91.70
57857;DHT22;43683;48.650;9.290;2023-05-16T03:17:51;10.50;91.60
57857;DHT22;43683;48.650;9.290;2023-05-16T03:20:17;10.50;91.70
57857;DHT22;43683;48.650;9.290;2023-05-16T03:22:43;10.50;91.70
57857;DHT22;43683;48.650;9.290;2023-05-16T03:25:09;10.60;91.70
57857;DHT22;43683;48.650;9.290;2023-05-16T03:27:35;10.60;91.70
57857;DHT22;43683;48.650;9.290;2023-05-16T03:30:00;10.60;91.70
57857;DHT22;43683;48.650;9.290;2023-05-16T03:32:26;10.60;91.70
57857;DHT22;43683;48.650;9.290;2023-05-16T03:34:52;10.60;91.70
57857;DHT22;43683;48.650;9.290;2023-05-16T03:37:17;10.60;91.80
57857;DHT22;43683;48.650;9.290;2023-05-16T03:39:43;10.60;91.80
57857;DHT22;43683;48.650;9.290;2023-05-16T03:42:08;10.60;91.90
57857;DHT22;43683;48.650;9.290;2023-05-16T03:44:34;10.50;91.90
57857;DHT22;43683;48.650;9.290;2023-05-16T03:46:59;10.40;91.90
57857;DHT22;43683;48.650;9.290;2023-05-16T03:49:26;10.40;92.00
57857;DHT22;43683;48.650;9.290;2023-05-16T03:51:54;10.40;92.10
57857;DHT22;43683;48.650;9.290;2023-05-16T03:54:21;10.30;92.20
57857;DHT22;43683;48.650;9.290;2023-05-16T03:56:46;10.30;92.30
57857;DHT22;43683;48.650;9.290;2023-05-16T03:59:12;10.20;92.40
57857;DHT22;43683;48.650;9.290;2023-05-16T04:01:37;10.10;92.50
57857;DHT22;43683;48.650;9.290;2023-05-16T04:04:03;10.10;92.50
57857;DHT22;43683;48.650;9.290;2023-05-16T04:06:28;10.10;92.50
57857;DHT22;43683;48.650;9.290;2023-05-16T04:08:54;10.10;92.50
57857;DHT22;43683;48.650;9.290;2023-05-16T04:11:20;10.20;92.40
57857;DHT22;43683;48.650;9.290;2023-05-16T04:13:46;10.20;92.30
57857;DHT22;43683;48.650;9.290;2023-05-16T04:16:11;10.30;92.20
57857;DHT22;43683;48.650;9.290;2023-05-16T04:18:37;10.30;92.00
57857;DHT22;43683;48.650;9.290;2023-05-16T04:21:03;10.40;92.00
57857;DHT22;43683;48.650;9.290;2023-05-16T04:23:28;10.40;91.90
57857;DHT22;43683;48.650;9.290;2023-05-16T04:25:54;10.50;91.90
57857;DHT22;43683;48.650;9.290;2023-05-16T04:28:21;10.50;91.80
57857;DHT22;43683;48.650;9.290;2023-05-16T04:30:47;10.50;91.80
57857;DHT22;43683;48.650;9.290;2023-05-16T04:33:13;10.50;91.80
57857;DHT22;43683;48.650;9.290;2023-05-16T04:35:38;10.60;91.80
57857;DHT22;43683;48.650;9.290;2023-05-16T04:38:04;10.70;91.70
57857;DHT22;43683;48.650;9.290;2023-05-16T04:40:29;10.70;91.70
57857;DHT22;43683;48.650;9.290;2023-05-16T04:42:55;10.80;91.60
57857;DHT22;43683;48.650;9.290;2023-05-16T04:45:21;10.80;91.60
57857;DHT22;43683;48.650;9.290;2023-05-16T04:47:46;10.90;91.60
57857;DHT22;43683;48.650;9.290;2023-05-16T04:50:12;11.00;91.60
57857;DHT22;43683;48.650;9.290;2023-05-16T04:52:39;11.00;91.50
57857;DHT22;43683;48.650;9.290;2023-05-16T04:55:05;11.10;91.40
57857;DHT22;43683;48.650;9.290;2023-05-16T04:57:30;11.20;91.40
57857;DHT22;43683;48.650;9.290;2023-05-16T04:59:56;11.30;91.40
57857;DHT22;43683;48.650;9.290;2023-05-16T05:02:21;11.30;91.30
57857;DHT22;43683;48.650;9.290;2023-05-16T05:04:47;11.40;91.30
57857;DHT22;43683;48.650;9.290;2023-05-16T05:07:12;11.40;91.30
57857;DHT22;43683;48.650;9.290;2023-05-16T05:09:38;11.50;91.20
57857;DHT22;43683;48.650;9.290;2023-05-16T05:12:04;11.60;91.20
57857;DHT22;43683;48.650;9.290;2023-05-16T05:14:32;11.60;91.20
57857;DHT22;43683;48.650;9.290;2023-05-16T05:16:58;11.70;91.40
57857;DHT22;43683;48.650;9.290;2023-05-16T05:19:23;11.70;91.00
57857;DHT22;43683;48.650;9.290;2023-05-16T05:21:49;11.80;91.00
57857;DHT22;43683;48.650;9.290;2023-05-16T05:24:14;11.80;91.00
57857;DHT22;43683;48.650;9.290;2023-05-16T05:26:40;11.90;90.90
57857;DHT22;43683;48.650;9.290;2023-05-16T05:29:05;11.90;90.90
57857;DHT22;43683;48.650;9.290;2023-05-16T05:31:31;11.90;90.90
57857;DHT22;43683;48.650;9.290;2023-05-16T05:33:59;12.00;90.80
57857;DHT22;43683;48.650;9.290;2023-05-16T05:36:24;12.10;90.70
57857;DHT22;43683;48.650;9.290;2023-05-16T05:38:50;12.20;90.60
57857;DHT22;43683;48.650;9.290;2023-05-16T05:41:15;12.20;90.50
57857;DHT22;43683;48.650;9.290;2023-05-16T05:43:41;12.20;90.50
57857;DHT22;43683;48.650;9.290;2023-05-16T05:46:07;12.30;90.40
57857;DHT22;43683;48.650;9.290;2023-05-16T05:48:33;12.30;90.40
57857;DHT22;43683;48.650;9.290;2023-05-16T05:50:59;12.30;90.40
57857;DHT22;43683;48.650;9.290;2023-05-16T05:53:24;12.30;90.40
57857;DHT22;43683;48.650;9.290;2023-05-16T05:55:50;12.20;90.30
57857;DHT22;43683;48.650;9.290;2023-05-16T05:58:15;12.20;90.30
57857;DHT22;43683;48.650;9.290;2023-05-16T06:00:42;12.20;90.30
57857;DHT22;43683;48.650;9.290;2023-05-16T06:03:08;12.30;90.30
57857;DHT22;43683;48.650;9.290;2023-05-16T06:05:33;12.20;90.20
57857;DHT22;43683;48.650;9.290;2023-05-16T06:07:59;12.30;90.20
57857;DHT22;43683;48.650;9.290;2023-05-16T06:10:24;12.30;90.20
57857;DHT22;43683;48.650;9.290;2023-05-16T06:12:50;12.40;90.10
57857;DHT22;43683;48.650;9.290;2023-05-16T06:15:15;12.40;90.00
57857;DHT22;43683;48.650;9.290;2023-05-16T06:17:41;12.50;89.90
57857;DHT22;43683;48.650;9.290;2023-05-16T06:20:07;12.50;89.70
57857;DHT22;43683;48.650;9.290;2023-05-16T06:22:32;12.60;89.40
57857;DHT22;43683;48.650;9.290;2023-05-16T06:24:58;12.70;89.00
57857;DHT22;43683;48.650;9.290;2023-05-16T06:27:24;12.80;88.50
57857;DHT22;43683;48.650;9.290;2023-05-16T06:29:50;12.90;88.30
57857;DHT22;43683;48.650;9.290;2023-05-16T06:32:15;12.90;88.20
57857;DHT22;43683;48.650;9.290;2023-05-16T06:34:41;12.90;88.10
57857;DHT22;43683;48.650;9.290;2023-05-16T06:37:06;13.00;88.00
57857;DHT22;43683;48.650;9.290;2023-05-16T06:39:32;13.10;87.80
57857;DHT22;43683;48.650;9.290;2023-05-16T06:41:57;13.10;87.70
57857;DHT22;43683;48.650;9.290;2023-05-16T06:44:23;13.10;87.70
57857;DHT22;43683;48.650;9.290;2023-05-16T06:46:48;13.00;87.70
57857;DHT22;43683;48.650;9.290;2023-05-16T06:49:14;13.10;87.80
57857;DHT22;43683;48.650;9.290;2023-05-16T06:51:39;13.00;87.60
57857;DHT22;43683;48.650;9.290;2023-05-16T06:54:05;13.00;87.70
57857;DHT22;43683;48.650;9.290;2023-05-16T06:56:31;12.90;87.80
57857;DHT22;43683;48.650;9.290;2023-05-16T06:58:57;12.90;87.90
57857;DHT22;43683;48.650;9.290;2023-05-16T07:01:22;12.90;87.90
57857;DHT22;43683;48.650;9.290;2023-05-16T07:03:48;12.80;87.90
57857;DHT22;43683;48.650;9.290;2023-05-16T07:06:13;12.80;87.80
57857;DHT22;43683;48.650;9.290;2023-05-16T07:08:39;12.90;87.60
57857;DHT22;43683;48.650;9.290;2023-05-16T07:11:05;12.90;87.40
57857;DHT22;43683;48.650;9.290;2023-05-16T07:13:30;12.90;87.30
57857;DHT22;43683;48.650;9.290;2023-05-16T07:15:56;12.90;87.30
57857;DHT22;43683;48.650;9.290;2023-05-16T07:18:21;12.90;87.20
57857;DHT22;43683;48.650;9.290;2023-05-16T07:20:47;12.90;87.10
57857;DHT22;43683;48.650;9.290;2023-05-16T07:23:12;12.80;87.10
57857;DHT22;43683;48.650;9.290;2023-05-16T07:25:38;12.90;86.90
57857;DHT22;43683;48.650;9.290;2023-05-16T07:28:04;12.90;86.60
57857;DHT22;43683;48.650;9.290;2023-05-16T07:30:29;12.90;86.50
57857;DHT22;43683;48.650;9.290;2023-05-16T07:32:55;12.90;86.50
57857;DHT22;43683;48.650;9.290;2023-05-16T07:35:21;12.90;86.40
57857;DHT22;43683;48.650;9.290;2023-05-16T07:37:46;12.80;86.50
57857;DHT22;43683;48.650;9.290;2023-05-16T07:40:12;12.70;86.60
57857;DHT22;43683;48.650;9.290;2023-05-16T07:42:38;12.70;86.60
57857;DHT22;43683;48.650;9.290;2023-05-16T07:45:05;12.80;86.60
57857;DHT22;43683;48.650;9.290;2023-05-16T07:47:31;12.80;86.60
57857;DHT22;43683;48.650;9.290;2023-05-16T07:49:57;12.70;86.70
57857;DHT22;43683;48.650;9.290;2023-05-16T07:52:22;12.60;86.80
57857;DHT22;43683;48.650;9.290;2023-05-16T07:54:48;12.60;86.90
57857;DHT22;43683;48.650;9.290;2023-05-16T07:57:14;12.60;86.90
57857;DHT22;43683;48.650;9.290;2023-05-16T07:59:40;12.60;87.00
57857;DHT22;43683;48.650;9.290;2023-05-16T08:02:06;12.60;87.60
57857;DHT22;43683;48.650;9.290;2023-05-16T08:04:31;12.50;87.40
57857;DHT22;43683;48.650;9.290;2023-05-16T08:06:57;12.50;86.70
57857;DHT22;43683;48.650;9.290;2023-05-16T08:09:22;12.60;86.80
57857;DHT22;43683;48.650;9.290;2023-05-16T08:11:48;12.60;86.50
57857;DHT22;43683;48.650;9.290;2023-05-16T08:14:13;12.60;86.40
57857;DHT22;43683;48.650;9.290;2023-05-16T08:16:39;12.60;86.30
57857;DHT22;43683;48.650;9.290;2023-05-16T08:19:05;12.60;86.40
57857;DHT22;43683;48.650;9.290;2023-05-16T08:21:30;12.60;86.30
57857;DHT22;43683;48.650;9.290;2023-05-16T08:23:56;12.60;86.10
57857;DHT22;43683;48.650;9.290;2023-05-16T08:26:22;12.70;85.80
57857;DHT22;43683;48.650;9.290;2023-05-16T08:28:47;12.80;85.60
57857;DHT22;43683;48.650;9.290;2023-05-16T08:31:14;12.80;85.40
57857;DHT22;43683;48.650;9.290;2023-05-16T08:33:39;12.80;85.20
57857;DHT22;43683;48.650;9.290;2023-05-16T08:36:05;12.90;84.90
57857;DHT22;43683;48.650;9.290;2023-05-16T08:38:30;12.90;84.80
57857;DHT22;43683;48.650;9.290;2023-05-16T08:40:56;12.80;85.10
57857;DHT22;43683;48.650;9.290;2023-05-16T08:43:22;12.70;85.10
57857;DHT22;43683;48.650;9.290;2023-05-16T08:45:48;12.70;85.20
57857;DHT22;43683;48.650;9.290;2023-05-16T08:48:14;12.60;85.10
57857;DHT22;43683;48.650;9.290;2023-05-16T08:50:41;12.60;85.10
57857;DHT22;43683;48.650;9.290;2023-05-16T08:53:08;12.70;84.90
57857;DHT22;43683;48.650;9.290;2023-05-16T08:55:35;12.70;84.50
57857;DHT22;43683;48.650;9.290;2023-05-16T08:58:01;12.70;84.40
57857;DHT22;43683;48.650;9.290;2023-05-16T09:00:27;12.70;84.30
57857;DHT22;43683;48.650;9.290;2023-05-16T09:02:53;12.60;84.30
57857;DHT22;43683;48.650;9.290;2023-05-16T09:05:20;12.60;84.50
57857;DHT22;43683;48.650;9.290;2023-05-16T09:07:46;12.50;84.50
57857;DHT22;43683;48.650;9.290;2023-05-16T09:10:12;12.50;84.60
57857;DHT22;43683;48.650;9.290;2023-05-16T09:12:39;12.40;84.60
57857;DHT22;43683;48.650;9.290;2023-05-16T09:15:08;12.40;84.70
57857;DHT22;43683;48.650;9.290;2023-05-16T09:17:36;12.40;84.70
57857;DHT22;43683;48.650;9.290;2023-05-16T09:22:38;12.40;84.60
57857;DHT22;43683;48.650;9.290;2023-05-16T09:25:04;12.40;84.50
57857;DHT22;43683;48.650;9.290;2023-05-16T09:27:30;12.50;84.30
57857;DHT22;43683;48.650;9.290;2023-05-16T09:29:57;12.40;84.20
57857;DHT22;43683;48.650;9.290;2023-05-16T09:32:24;12.50;84.10
57857;DHT22;43683;48.650;9.290;2023-05-16T09:34:51;12.40;84.20
57857;DHT22;43683;48.650;9.290;2023-05-16T09:37:18;12.50;84.00
57857;DHT22;43683;48.650;9.290;2023-05-16T09:39:48;12.50;84.00
57857;DHT22;43683;48.650;9.290;2023-05-16T09:42:15;12.50;83.70
57857;DHT22;43683;48.650;9.290;2023-05-16T09:44:49;12.60;83.80
57857;DHT22;43683;48.650;9.290;2023-05-16T09:47:16;12.50;83.90
57857;DHT22;43683;48.650;9.290;2023-05-16T09:49:47;12.40;83.90
57857;DHT22;43683;48.650;9.290;2023-05-16T09:52:15;12.30;84.20
57857;DHT22;43683;48.650;9.290;2023-05-16T09:54:41;12.30;84.40
57857;DHT22;43683;48.650;9.290;2023-05-16T09:57:07;12.20;84.60
57857;DHT22;43683;48.650;9.290;2023-05-16T09:59:37;12.20;84.90
57857;DHT22;43683;48.650;9.290;2023-05-16T10:02:04;12.10;85.10
57857;DHT22;43683;48.650;9.290;2023-05-16T10:04:30;12.00;85.20
57857;DHT22;43683;48.650;9.290;2023-05-16T10:06:56;12.00;85.60
57857;DHT22;43683;48.650;9.290;2023-05-16T10:09:23;11.90;86.00
57857;DHT22;43683;48.650;9.290;2023-05-16T10:11:51;11.90;86.10
57857;DHT22;43683;48.650;9.290;2023-05-16T10:14:18;12.00;86.00
57857;DHT22;43683;48.650;9.290;2023-05-16T10:16:46;12.20;85.60
57857;DHT22;43683;48.650;9.290;2023-05-16T10:19:13;12.30;85.10
57857;DHT22;43683;48.650;9.290;2023-05-16T10:21:44;12.30;84.90
57857;DHT22;43683;48.650;9.290;2023-05-16T10:24:11;12.40;84.70
57857;DHT22;43683;48.650;9.290;2023-05-16T10:26:39;12.50;84.50
57857;DHT22;43683;48.650;9.290;2023-05-16T10:29:05;12.60;84.40
57857;DHT22;43683;48.650;9.290;2023-05-16T10:31:31;12.60;84.20
57857;DHT22;43683;48.650;9.290;2023-05-16T10:33:57;12.60;84.20
57857;DHT22;43683;48.650;9.290;2023-05-16T10:36:23;12.70;84.20
57857;DHT22;43683;48.650;9.290;2023-05-16T10:38:50;12.70;84.00
57857;DHT22;43683;48.650;9.290;2023-05-16T10:41:16;12.80;83.80
57857;DHT22;43683;48.650;9.290;2023-05-16T10:43:44;12.90;83.70
57857;DHT22;43683;48.650;9.290;2023-05-16T10:46:11;12.90;83.50
57857;DHT22;43683;48.650;9.290;2023-05-16T10:48:40;13.00;83.50
57857;DHT22;43683;48.650;9.290;2023-05-16T10:53:50;12.90;83.50
57857;DHT22;43683;48.650;9.290;2023-05-16T10:56:22;12.90;83.60
57857;DHT22;43683;48.650;9.290;2023-05-16T10:58:47;12.90;83.60
57857;DHT22;43683;48.650;9.290;2023-05-16T11:01:25;12.90;83.60
57857;DHT22;43683;48.650;9.290;2023-05-16T11:06:32;13.00;83.30
57857;DHT22;43683;48.650;9.290;2023-05-16T11:11:44;13.10;83.30
57857;DHT22;43683;48.650;9.290;2023-05-16T11:14:21;13.00;83.30
57857;DHT22;43683;48.650;9.290;2023-05-16T11:16:51;12.90;83.30
57857;DHT22;43683;48.650;9.290;2023-05-16T11:27:21;13.10;82.90
57857;DHT22;43683;48.650;9.290;2023-05-16T11:29:48;13.10;82.90
57857;DHT22;43683;48.650;9.290;2023-05-16T11:32:13;13.10;82.70
57857;DHT22;43683;48.650;9.290;2023-05-16T11:34:43;13.20;82.70
57857;DHT22;43683;48.650;9.290;2023-05-16T11:37:10;13.20;82.60
57857;DHT22;43683;48.650;9.290;2023-05-16T11:39:36;13.20;82.60
57857;DHT22;43683;48.650;9.290;2023-05-16T11:42:01;13.10;82.60
57857;DHT22;43683;48.650;9.290;2023-05-16T11:44:27;13.10;82.60
57857;DHT22;43683;48.650;9.290;2023-05-16T11:46:53;13.10;82.60
57857;DHT22;43683;48.650;9.290;2023-05-16T11:49:19;13.20;82.60
57857;DHT22;43683;48.650;9.290;2023-05-16T11:51:44;13.20;82.40
57857;DHT22;43683;48.650;9.290;2023-05-16T11:54:11;13.20;82.10
57857;DHT22;43683;48.650;9.290;2023-05-16T11:56:39;13.30;82.10
57857;DHT22;43683;48.650;9.290;2023-05-16T11:59:07;13.20;82.10
57857;DHT22;43683;48.650;9.290;2023-05-16T12:01:34;13.10;82.40
57857;DHT22;43683;48.650;9.290;2023-05-16T12:04:00;13.20;82.20
57857;DHT22;43683;48.650;9.290;2023-05-16T12:06:26;13.40;81.70
57857;DHT22;43683;48.650;9.290;2023-05-16T12:08:51;13.40;81.50
57857;DHT22;43683;48.650;9.290;2023-05-16T12:11:18;13.40;81.20
57857;DHT22;43683;48.650;9.290;2023-05-16T12:13:43;13.50;81.20
57857;DHT22;43683;48.650;9.290;2023-05-16T12:16:11;13.50;81.00
57857;DHT22;43683;48.650;9.290;2023-05-16T12:18:37;13.40;81.10
57857;DHT22;43683;48.650;9.290;2023-05-16T12:21:04;13.30;81.60
57857;DHT22;43683;48.650;9.290;2023-05-16T12:23:31;13.10;82.00
57857;DHT22;43683;48.650;9.290;2023-05-16T12:25:57;13.00;82.20
57857;DHT22;43683;48.650;9.290;2023-05-16T12:28:30;13.00;82.60
57857;DHT22;43683;48.650;9.290;2023-05-16T12:30:57;12.90;82.90
57857;DHT22;43683;48.650;9.290;2023-05-16T12:33:23;12.70;83.10
57857;DHT22;43683;48.650;9.290;2023-05-16T12:35:49;12.70;83.20
57857;DHT22;43683;48.650;9.290;2023-05-16T12:38:16;12.60;83.50
57857;DHT22;43683;48.650;9.290;2023-05-16T12:40:43;12.60;83.40
57857;DHT22;43683;48.650;9.290;2023-05-16T12:43:19;12.50;83.30
57857;DHT22;43683;48.650;9.290;2023-05-16T12:45:55;12.50;83.40
57857;DHT22;43683;48.650;9.290;2023-05-16T12:48:23;12.50;83.40
57857;DHT22;43683;48.650;9.290;2023-05-16T12:50:49;12.40;83.40
57857;DHT22;43683;48.650;9.290;2023-05-16T12:53:17;12.40;83.40
57857;DHT22;43683;48.650;9.290;2023-05-16T12:55:43;12.40;83.40
57857;DHT22;43683;48.650;9.290;2023-05-16T12:58:09;12.40;83.40
57857;DHT22;43683;48.650;9.290;2023-05-16T13:00:36;12.40;83.60
57857;DHT22;43683;48.650;9.290;2023-05-16T13:03:03;12.40;83.60
57857;DHT22;43683;48.650;9.290;2023-05-16T13:05:29;12.40;83.70
57857;DHT22;43683;48.650;9.290;2023-05-16T13:07:54;12.40;83.70
57857;DHT22;43683;48.650;9.290;2023-05-16T13:10:20;12.50;83.40
57857;DHT22;43683;48.650;9.290;2023-05-16T13:12:46;12.50;83.00
57857;DHT22;43683;48.650;9.290;2023-05-16T13:15:12;12.60;82.90
57857;DHT22;43683;48.650;9.290;2023-05-16T13:17:38;12.70;82.50
57857;DHT22;43683;48.650;9.290;2023-05-16T13:20:05;12.90;82.00
57857;DHT22;43683;48.650;9.290;2023-05-16T13:22:36;12.90;81.60
57857;DHT22;43683;48.650;9.290;2023-05-16T13:25:02;13.00;81.40
57857;DHT22;43683;48.650;9.290;2023-05-16T13:27:31;13.10;81.30
57857;DHT22;43683;48.650;9.290;2023-05-16T13:29:57;13.10;81.20
57857;DHT22;43683;48.650;9.290;2023-05-16T13:32:23;13.10;81.10
57857;DHT22;43683;48.650;9.290;2023-05-16T13:34:49;13.20;80.90
57857;DHT22;43683;48.650;9.290;2023-05-16T13:37:15;13.30;80.60
57857;DHT22;43683;48.650;9.290;2023-05-16T13:39:41;13.40;80.30
57857;DHT22;43683;48.650;9.290;2023-05-16T13:42:06;13.30;80.40
57857;DHT22;43683;48.650;9.290;2023-05-16T13:44:32;13.30;80.40
57857;DHT22;43683;48.650;9.290;2023-05-16T13:46:58;13.20;80.60
57857;DHT22;43683;48.650;9.290;2023-05-16T13:49:23;13.30;80.60
57857;DHT22;43683;48.650;9.290;2023-05-16T13:51:49;13.30;80.60
57857;DHT22;43683;48.650;9.290;2023-05-16T13:54:16;13.30;80.50
57857;DHT22;43683;48.650;9.290;2023-05-16T13:56:42;13.20;80.70
57857;DHT22;43683;48.650;9.290;2023-05-16T13:59:08;13.20;80.60
57857;DHT22;43683;48.650;9.290;2023-05-16T14:01:33;13.30;80.30
57857;DHT22;43683;48.650;9.290;2023-05-16T14:03:59;13.40;80.00
57857;DHT22;43683;48.650;9.290;2023-05-16T14:06:24;13.40;79.70
57857;DHT22;43683;48.650;9.290;2023-05-16T14:08:50;13.50;80.40
57857;DHT22;43683;48.650;9.290;2023-05-16T14:11:16;13.50;79.40
57857;DHT22;43683;48.650;9.290;2023-05-16T14:13:44;13.70;79.00
57857;DHT22;43683;48.650;9.290;2023-05-16T14:16:09;13.70;78.90
57857;DHT22;43683;48.650;9.290;2023-05-16T14:18:35;13.60;78.90
57857;DHT22;43683;48.650;9.290;2023-05-16T14:21:00;13.40;79.30
57857;DHT22;43683;48.650;9.290;2023-05-16T14:23:26;13.20;79.70
57857;DHT22;43683;48.650;9.290;2023-05-16T14:25:52;13.10;79.80
57857;DHT22;43683;48.650;9.290;2023-05-16T14:28:18;13.10;79.90
57857;DHT22;43683;48.650;9.290;2023-05-16T14:30:43;13.10;79.80
57857;DHT22;43683;48.650;9.290;2023-05-16T14:33:09;13.00;79.90
57857;DHT22;43683;48.650;9.290;2023-05-16T14:35:34;13.00;79.90
57857;DHT22;43683;48.650;9.290;2023-05-16T14:38:02;12.90;79.80
57857;DHT22;43683;48.650;9.290;2023-05-16T14:40:28;12.90;79.80
57857;DHT22;43683;48.650;9.290;2023-05-16T14:42:54;12.80;79.90
57857;DHT22;43683;48.650;9.290;2023-05-16T14:45:19;12.80;80.00
57857;DHT22;43683;48.650;9.290;2023-05-16T14:47:45;12.70;80.10
57857;DHT22;43683;48.650;9.290;2023-05-16T14:50:10;12.70;80.10
57857;DHT22;43683;48.650;9.290;2023-05-16T14:52:38;12.60;80.90
57857;DHT22;43683;48.650;9.290;2023-05-16T14:55:05;12.50;80.20
57857;DHT22;43683;48.650;9.290;2023-05-16T14:57:30;12.50;80.20
57857;DHT22;43683;48.650;9.290;2023-05-16T14:59:57;12.50;80.20
57857;DHT22;43683;48.650;9.290;2023-05-16T15:02:23;12.60;80.00
57857;DHT22;43683;48.650;9.290;2023-05-16T15:04:48;12.60;79.90
57857;DHT22;43683;48.650;9.290;2023-05-16T15:07:14;12.60;79.90
57857;DHT22;43683;48.650;9.290;2023-05-16T15:09:40;12.50;80.00
57857;DHT22;43683;48.650;9.290;2023-05-16T15:12:06;12.40;80.10
57857;DHT22;43683;48.650;9.290;2023-05-16T15:14:32;12.40;80.10
57857;DHT22;43683;48.650;9.290;2023-05-16T15:16:57;12.40;80.00
57857;DHT22;43683;48.650;9.290;2023-05-16T15:19:23;12.50;79.90
57857;DHT22;43683;48.650;9.290;2023-05-16T15:21:49;12.60;79.60
57857;DHT22;43683;48.650;9.290;2023-05-16T15:24:14;12.70;79.10
57857;DHT22;43683;48.650;9.290;2023-05-16T15:26:41;12.80;78.90
57857;DHT22;43683;48.650;9.290;2023-05-16T15:29:07;12.80;79.00
57857;DHT22;43683;48.650;9.290;2023-05-16T15:31:32;12.70;79.10
57857;DHT22;43683;48.650;9.290;2023-05-16T15:33:58;12.60;79.30
57857;DHT22;43683;48.650;9.290;2023-05-16T15:36:23;12.50;79.40
57857;DHT22;43683;48.650;9.290;2023-05-16T15:38:49;12.50;79.70
57857;DHT22;43683;48.650;9.290;2023-05-16T15:41:15;12.40;79.70
57857;DHT22;43683;48.650;9.290;2023-05-16T15:43:41;12.40;79.70
57857;DHT22;43683;48.650;9.290;2023-05-16T15:46:10;12.40;79.70
57857;DHT22;43683;48.650;9.290;2023-05-16T15:48:36;12.40;79.60
57857;DHT22;43683;48.650;9.290;2023-05-16T15:51:02;12.40;79.40